< < Back
Terminal Aerodrome Forecast


Current Version              Previous Versions:   1  2  3  4  5  6  7  8  9  

Terminal Aerodrome Forecast

167
FTUS42 KCHS 270520
TAFSAV
TAF
KSAV 270520Z 2706/2806 21007KT 6SM BR VCSH BKN006
     FM271300 23008KT P6SM VCSH SCT009 BKN015
     FM271500 26011G17KT 6SM -SHRA SCT010 BKN020
     FM272000 29015G22KT P6SM BKN035
     FM280100 30009KT P6SM SCT035=



Latest METAR

338
SAUS80 KWBC 271200 RRA
MTRSAV
METAR KSAV 271153Z 23007KT 10SM BKN015 BKN070 OVC200 17/16 A2975 RMK AO2
SLP073 CIG 012V017 T01720156 10189 20167 53004


USA.gov is the U.S. government's official web portal to all federal, state and local government web resources and services.